DRGN01 YAMB-FJDG
Flight info
| Callsign | DRGN01 |
|---|---|
| Flight time | N/A |
| Altitude | 34000 |
| Route | MESED Q484 LIKTO G326 ROM T11 AS T85 NASTI/N0488F360 T85 VALRA W165 PD N509 TANEM/N0481F380 N509 TATOD G200 CC T41 KAMUN R348 NKW |
| Aircraft | A332/H-SADE1E2E3GHIJ3J5M1P2RWXY/LB2D1 |
Departure
| Time | 2026-04-25 23:04 |
|---|---|
| Airport | RAAF Base Amberley (YAMB) |
Arrival
| Time | N/A |
|---|---|
| Airport | Naval Support Facility Diego Garcia (FJDG) |
| Time | Latitude | Longitude | Altitude | Speed | Heading |
|---|---|---|---|---|---|
| 2026-04-25 22:56 | -27.62383 | 152.70325 | 109 ft | 0 kts | 159° |
| 2026-04-25 23:01 | -27.62385 | 152.70326 | 109 ft | 2 kts | 159° |
| 2026-04-25 23:01 | -27.62417 | 152.70346 | 106 ft | 7 kts | 128° |
| 2026-04-25 23:01 | -27.62396 | 152.70396 | 105 ft | 8 kts | 23° |
| 2026-04-25 23:02 | -27.62344 | 152.70390 | 109 ft | 5 kts | 338° |
| 2026-04-25 23:02 | -27.62317 | 152.70378 | 111 ft | 3 kts | 337° |
| 2026-04-25 23:02 | -27.62287 | 152.70369 | 112 ft | 7 kts | 351° |
| 2026-04-25 23:02 | -27.62225 | 152.70407 | 111 ft | 13 kts | 58° |
| 2026-04-25 23:03 | -27.62201 | 152.70515 | 107 ft | 16 kts | 118° |
| 2026-04-25 23:03 | -27.62265 | 152.70570 | 105 ft | 0 kts | 157° |
| 2026-04-25 23:03 | -27.62295 | 152.70584 | 104 ft | 25 kts | 158° |
| 2026-04-25 23:03 | -27.62659 | 152.70741 | 110 ft | 85 kts | 159° |
| 2026-04-25 23:04 | -27.63388 | 152.71056 | 112 ft | 136 kts | 158° |
| 2026-04-25 23:04 | -27.64046 | 152.71346 | 113 ft | 165 kts | 158° |
| 2026-04-25 23:04 | -27.65569 | 152.72000 | 606 ft | 178 kts | 159° |
| 2026-04-25 23:04 | -27.66717 | 152.72478 | 1295 ft | 174 kts | 158° |
| 2026-04-25 23:05 | -27.67829 | 152.72946 | 1919 ft | 172 kts | 156° |
| 2026-04-25 23:05 | -27.68990 | 152.73447 | 2281 ft | 187 kts | 155° |
| 2026-04-25 23:05 | -27.70258 | 152.73994 | 2593 ft | 205 kts | 158° |
| 2026-04-25 23:05 | -27.71744 | 152.74126 | 2896 ft | 233 kts | 192° |
| 2026-04-25 23:06 | -27.73202 | 152.73100 | 3228 ft | 263 kts | 227° |
| 2026-04-25 23:06 | -27.73966 | 152.71159 | 3682 ft | 285 kts | 263° |
| 2026-04-25 23:06 | -27.73646 | 152.68977 | 4336 ft | 289 kts | 298° |
| 2026-04-25 23:06 | -27.72462 | 152.67181 | 5048 ft | 288 kts | 316° |
| 2026-04-25 23:07 | -27.71026 | 152.65611 | 5722 ft | 291 kts | 320° |
| 2026-04-25 23:07 | -27.69556 | 152.64046 | 6371 ft | 295 kts | 319° |
| 2026-04-25 23:07 | -27.68073 | 152.62405 | 7055 ft | 297 kts | 317° |
| 2026-04-25 23:07 | -27.66623 | 152.60735 | 7720 ft | 300 kts | 316° |
| 2026-04-25 23:08 | -27.65188 | 152.59039 | 8378 ft | 302 kts | 315° |
| 2026-04-25 23:08 | -27.63742 | 152.57306 | 9027 ft | 304 kts | 315° |
| 2026-04-25 23:08 | -27.62302 | 152.55566 | 9683 ft | 306 kts | 314° |
| 2026-04-25 23:08 | -27.60851 | 152.53810 | 10317 ft | 309 kts | 314° |
| 2026-04-25 23:09 | -27.59359 | 152.52002 | 10668 ft | 322 kts | 314° |
| 2026-04-25 23:09 | -27.57787 | 152.50098 | 10945 ft | 338 kts | 314° |
| 2026-04-25 23:09 | -27.56152 | 152.48117 | 11220 ft | 354 kts | 314° |
| 2026-04-25 23:09 | -27.54436 | 152.46039 | 11489 ft | 370 kts | 314° |
| 2026-04-25 23:10 | -27.52664 | 152.43896 | 11748 ft | 385 kts | 313° |
| 2026-04-25 23:10 | -27.50797 | 152.41625 | 12073 ft | 397 kts | 311° |
| 2026-04-25 23:10 | -27.49144 | 152.39125 | 12624 ft | 403 kts | 302° |
| 2026-04-25 23:10 | -27.47833 | 152.36314 | 13279 ft | 406 kts | 292° |
| 2026-04-25 23:11 | -27.46811 | 152.33366 | 13903 ft | 409 kts | 290° |
| 2026-04-25 23:11 | -27.45833 | 152.30373 | 14495 ft | 412 kts | 289° |
| 2026-04-25 23:11 | -27.44841 | 152.27310 | 15096 ft | 416 kts | 289° |
| 2026-04-25 23:11 | -27.43850 | 152.24272 | 15688 ft | 419 kts | 289° |
| 2026-04-25 23:12 | -27.42838 | 152.21196 | 16280 ft | 422 kts | 290° |
| 2026-04-25 23:12 | -27.41818 | 152.18111 | 16876 ft | 425 kts | 290° |
| 2026-04-25 23:12 | -27.40773 | 152.14966 | 17445 ft | 428 kts | 290° |
| 2026-04-25 23:12 | -27.39735 | 152.11845 | 18000 ft | 431 kts | 290° |
| 2026-04-25 23:13 | -27.38674 | 152.08664 | 18569 ft | 435 kts | 289° |
| 2026-04-25 23:13 | -27.37621 | 152.05515 | 19134 ft | 437 kts | 289° |
| 2026-04-25 23:13 | -27.36548 | 152.02306 | 19717 ft | 439 kts | 289° |
| 2026-04-25 23:13 | -27.35469 | 151.99075 | 20254 ft | 442 kts | 289° |
| 2026-04-25 23:14 | -27.34391 | 151.95848 | 20773 ft | 445 kts | 289° |
| 2026-04-25 23:14 | -27.33302 | 151.92593 | 21279 ft | 447 kts | 288° |
| 2026-04-25 23:14 | -27.32198 | 151.89300 | 21768 ft | 450 kts | 288° |
| 2026-04-25 23:14 | -27.31105 | 151.86026 | 22240 ft | 453 kts | 287° |
| 2026-04-25 23:15 | -27.30076 | 151.82663 | 22722 ft | 454 kts | 286° |
| 2026-04-25 23:15 | -27.29077 | 151.79330 | 23183 ft | 456 kts | 285° |
| 2026-04-25 23:15 | -27.28059 | 151.75931 | 23638 ft | 458 kts | 285° |
| 2026-04-25 23:15 | -27.27043 | 151.72528 | 24073 ft | 460 kts | 285° |
| 2026-04-25 23:16 | -27.26033 | 151.69148 | 24513 ft | 462 kts | 285° |
| 2026-04-25 23:16 | -27.25002 | 151.65703 | 24946 ft | 464 kts | 285° |
| 2026-04-25 23:16 | -27.23980 | 151.62299 | 25362 ft | 465 kts | 285° |
| 2026-04-25 23:16 | -27.22939 | 151.58829 | 25777 ft | 467 kts | 285° |
| 2026-04-25 23:17 | -27.21908 | 151.55397 | 26162 ft | 468 kts | 285° |
| 2026-04-25 23:17 | -27.20865 | 151.51924 | 26550 ft | 470 kts | 284° |
| 2026-04-25 23:17 | -27.19825 | 151.48473 | 26938 ft | 471 kts | 284° |
| 2026-04-25 23:17 | -27.18773 | 151.44987 | 27317 ft | 472 kts | 284° |
| 2026-04-25 23:18 | -27.17719 | 151.41492 | 27696 ft | 473 kts | 284° |
| 2026-04-25 23:18 | -27.16674 | 151.38036 | 28039 ft | 474 kts | 284° |
| 2026-04-25 23:18 | -27.15609 | 151.34509 | 28443 ft | 474 kts | 284° |
| 2026-04-25 23:18 | -27.14558 | 151.31043 | 28958 ft | 471 kts | 284° |
| 2026-04-25 23:19 | -27.13508 | 151.27583 | 29528 ft | 467 kts | 284° |
| 2026-04-25 23:19 | -27.12467 | 151.24152 | 30070 ft | 463 kts | 283° |
| 2026-04-25 23:19 | -27.11433 | 151.20746 | 30561 ft | 460 kts | 283° |
| 2026-04-25 23:19 | -27.10392 | 151.17319 | 31068 ft | 457 kts | 283° |
| 2026-04-25 23:20 | -27.09377 | 151.13974 | 31562 ft | 454 kts | 283° |
| 2026-04-25 23:20 | -27.08363 | 151.10640 | 32047 ft | 451 kts | 283° |
| 2026-04-25 23:20 | -27.07367 | 151.07369 | 32524 ft | 448 kts | 283° |
| 2026-04-25 23:20 | -27.06358 | 151.04063 | 32911 ft | 447 kts | 283° |
| 2026-04-25 23:21 | -27.05361 | 151.00792 | 33228 ft | 447 kts | 283° |
| 2026-04-25 23:21 | -27.04357 | 150.97492 | 33476 ft | 448 kts | 283° |
| 2026-04-25 23:21 | -27.03345 | 150.94177 | 33795 ft | 448 kts | 283° |
| 2026-04-25 23:21 | -27.02338 | 150.90889 | 34170 ft | 447 kts | 283° |
| 2026-04-25 23:22 | -27.00321 | 150.84294 | 34213 ft | 447 kts | 283° |
| 2026-04-25 23:23 | -26.97292 | 150.74435 | 34214 ft | 446 kts | 282° |
| 2026-04-25 23:23 | -26.95276 | 150.67889 | 34217 ft | 446 kts | 283° |
| 2026-04-25 23:24 | -26.93263 | 150.61345 | 34213 ft | 445 kts | 283° |
| 2026-04-25 23:24 | -26.91246 | 150.54813 | 34212 ft | 445 kts | 283° |
| 2026-04-25 23:25 | -26.89223 | 150.48273 | 34214 ft | 446 kts | 283° |
| 2026-04-25 23:25 | -26.87210 | 150.41702 | 34216 ft | 444 kts | 282° |
| 2026-04-25 23:26 | -26.85642 | 150.35120 | 34214 ft | 439 kts | 277° |
| 2026-04-25 23:26 | -26.84340 | 150.28450 | 34216 ft | 440 kts | 277° |
| 2026-04-25 23:27 | -26.83047 | 150.21793 | 34216 ft | 438 kts | 277° |
| 2026-04-25 23:27 | -26.81747 | 150.15135 | 34213 ft | 439 kts | 277° |
| 2026-04-25 23:28 | -26.80444 | 150.08460 | 34218 ft | 438 kts | 278° |
| 2026-04-25 23:28 | -26.79147 | 150.01840 | 34216 ft | 438 kts | 278° |
| 2026-04-25 23:29 | -26.77844 | 149.95197 | 34216 ft | 438 kts | 277° |
| 2026-04-25 23:29 | -26.76539 | 149.88559 | 34215 ft | 439 kts | 278° |
| 2026-04-25 23:30 | -26.75209 | 149.81822 | 34208 ft | 450 kts | 278° |
| 2026-04-25 23:30 | -26.73854 | 149.74966 | 34209 ft | 452 kts | 278° |
| 2026-04-25 23:31 | -26.72501 | 149.68144 | 34210 ft | 452 kts | 278° |
| 2026-04-25 23:31 | -26.71140 | 149.61305 | 34214 ft | 452 kts | 278° |
| 2026-04-25 23:32 | -26.69768 | 149.54457 | 34215 ft | 452 kts | 278° |
| 2026-04-25 23:32 | -26.68392 | 149.47613 | 34211 ft | 452 kts | 278° |
| 2026-04-25 23:33 | -26.67017 | 149.40768 | 34214 ft | 453 kts | 278° |
| 2026-04-25 23:33 | -26.65633 | 149.33890 | 34216 ft | 453 kts | 279° |
| 2026-04-25 23:34 | -26.64260 | 149.27083 | 34216 ft | 452 kts | 279° |
| 2026-04-25 23:34 | -26.62878 | 149.20252 | 34217 ft | 452 kts | 279° |
| 2026-04-25 23:35 | -26.61495 | 149.13423 | 34217 ft | 452 kts | 279° |
| 2026-04-25 23:35 | -26.60105 | 149.06599 | 34217 ft | 452 kts | 279° |
| 2026-04-25 23:36 | -26.58712 | 148.99756 | 34218 ft | 453 kts | 279° |
| 2026-04-25 23:36 | -26.57323 | 148.92940 | 34218 ft | 452 kts | 279° |
| 2026-04-25 23:37 | -26.55924 | 148.86110 | 34220 ft | 452 kts | 279° |
| 2026-04-25 23:37 | -26.54540 | 148.79260 | 34223 ft | 452 kts | 278° |
| 2026-04-25 23:38 | -26.53540 | 148.72372 | 34227 ft | 451 kts | 275° |
| 2026-04-25 23:38 | -26.52638 | 148.65485 | 34225 ft | 449 kts | 276° |
| 2026-04-25 23:39 | -26.51730 | 148.58577 | 34228 ft | 449 kts | 276° |
| 2026-04-25 23:39 | -26.50986 | 148.52885 | 34221 ft | 448 kts | 275° |
| 2026-04-25 23:40 | -26.49931 | 148.44873 | 34230 ft | 449 kts | 276° |
| 2026-04-25 23:40 | -26.49024 | 148.38008 | 34223 ft | 449 kts | 276° |
| 2026-04-25 23:41 | -26.48108 | 148.31113 | 34221 ft | 448 kts | 276° |
| 2026-04-25 23:41 | -26.47191 | 148.24225 | 34216 ft | 447 kts | 276° |
| 2026-04-25 23:42 | -26.46277 | 148.17404 | 34211 ft | 447 kts | 276° |
| 2026-04-25 23:42 | -26.45360 | 148.10565 | 34215 ft | 447 kts | 276° |
| 2026-04-25 23:43 | -26.44436 | 148.03697 | 34211 ft | 447 kts | 276° |
| 2026-04-25 23:43 | -26.43512 | 147.96875 | 34212 ft | 447 kts | 276° |
| 2026-04-25 23:44 | -26.42581 | 147.90012 | 34218 ft | 447 kts | 276° |
| 2026-04-25 23:44 | -26.41658 | 147.83205 | 34216 ft | 446 kts | 276° |
| 2026-04-25 23:45 | -26.40719 | 147.76350 | 34223 ft | 447 kts | 276° |
| 2026-04-25 23:45 | -26.39781 | 147.69527 | 34219 ft | 446 kts | 276° |
| 2026-04-25 23:46 | -26.38845 | 147.62724 | 34221 ft | 447 kts | 276° |
| 2026-04-25 23:46 | -26.37902 | 147.55890 | 34217 ft | 445 kts | 277° |
| 2026-04-25 23:47 | -26.36961 | 147.49115 | 34218 ft | 445 kts | 276° |
| 2026-04-25 23:47 | -26.36014 | 147.42319 | 34218 ft | 446 kts | 277° |
| 2026-04-25 23:48 | -26.35065 | 147.35525 | 34216 ft | 445 kts | 276° |
| 2026-04-25 23:48 | -26.34111 | 147.28697 | 34220 ft | 445 kts | 277° |
| 2026-04-25 23:49 | -26.33157 | 147.21912 | 34218 ft | 445 kts | 277° |
| 2026-04-25 23:49 | -26.32202 | 147.15153 | 34215 ft | 443 kts | 277° |
| 2026-04-25 23:50 | -26.31238 | 147.08362 | 34217 ft | 444 kts | 277° |
| 2026-04-25 23:50 | -26.30278 | 147.01608 | 34214 ft | 445 kts | 277° |
| 2026-04-25 23:51 | -26.29310 | 146.94809 | 34214 ft | 445 kts | 277° |
| 2026-04-25 23:51 | -26.28341 | 146.88029 | 34213 ft | 444 kts | 278° |
| 2026-04-25 23:52 | -26.27368 | 146.81259 | 34213 ft | 445 kts | 278° |
| 2026-04-25 23:52 | -26.26392 | 146.74477 | 34213 ft | 445 kts | 278° |
| 2026-04-25 23:53 | -26.25409 | 146.67691 | 34210 ft | 444 kts | 278° |
| 2026-04-25 23:53 | -26.24429 | 146.60936 | 34212 ft | 442 kts | 277° |
| 2026-04-25 23:54 | -26.23446 | 146.54193 | 34219 ft | 444 kts | 278° |
| 2026-04-25 23:54 | -26.22461 | 146.47426 | 34216 ft | 442 kts | 278° |
| 2026-04-25 23:55 | -26.21474 | 146.40707 | 34219 ft | 441 kts | 278° |
| 2026-04-25 23:55 | -26.20494 | 146.34027 | 34222 ft | 441 kts | 278° |
| 2026-04-25 23:56 | -26.19497 | 146.27284 | 34221 ft | 441 kts | 279° |
| 2026-04-25 23:56 | -26.18500 | 146.20552 | 34214 ft | 440 kts | 278° |
| 2026-04-25 23:57 | -26.17509 | 146.13875 | 34215 ft | 440 kts | 278° |
| 2026-04-25 23:57 | -26.16512 | 146.07182 | 34212 ft | 439 kts | 278° |
| 2026-04-25 23:58 | -26.15511 | 146.00491 | 34218 ft | 438 kts | 279° |
| 2026-04-25 23:58 | -26.14505 | 145.93796 | 34214 ft | 439 kts | 279° |
| 2026-04-25 23:59 | -26.13503 | 145.87137 | 34212 ft | 439 kts | 279° |
| 2026-04-25 23:59 | -26.12492 | 145.80437 | 34212 ft | 439 kts | 279° |
| 2026-04-26 00:00 | -26.11481 | 145.73770 | 34222 ft | 438 kts | 279° |
| 2026-04-26 00:00 | -26.10474 | 145.67119 | 34221 ft | 438 kts | 279° |
| 2026-04-26 00:01 | -26.09455 | 145.60448 | 34219 ft | 438 kts | 279° |
| 2026-04-26 00:01 | -26.08439 | 145.53787 | 34221 ft | 437 kts | 279° |
| 2026-04-26 00:02 | -26.07421 | 145.47142 | 34226 ft | 439 kts | 278° |
| 2026-04-26 00:02 | -26.06391 | 145.40460 | 34215 ft | 438 kts | 279° |
| 2026-04-26 00:03 | -26.05372 | 145.33847 | 34229 ft | 436 kts | 279° |
| 2026-04-26 00:03 | -26.04337 | 145.27173 | 34228 ft | 438 kts | 279° |
| 2026-04-26 00:04 | -26.03307 | 145.20528 | 34228 ft | 436 kts | 279° |
| 2026-04-26 00:04 | -26.02276 | 145.13901 | 34226 ft | 437 kts | 279° |
| 2026-04-26 00:05 | -26.01411 | 145.08369 | 34225 ft | 438 kts | 279° |
| 2026-04-26 00:05 | -26.00192 | 145.00604 | 34229 ft | 438 kts | 279° |
| 2026-04-26 00:06 | -25.99147 | 144.93939 | 34225 ft | 438 kts | 279° |
| 2026-04-26 00:06 | -25.98095 | 144.87280 | 34225 ft | 438 kts | 279° |
| 2026-04-26 00:07 | -25.97044 | 144.80661 | 34223 ft | 438 kts | 279° |
| 2026-04-26 00:07 | -25.95986 | 144.73991 | 34209 ft | 438 kts | 279° |
| 2026-04-26 00:08 | -25.94929 | 144.67366 | 34203 ft | 439 kts | 279° |
| 2026-04-26 00:08 | -25.93864 | 144.60661 | 34198 ft | 439 kts | 279° |
| 2026-04-26 00:09 | -25.92804 | 144.54039 | 34200 ft | 440 kts | 279° |
| 2026-04-26 00:09 | -25.91729 | 144.47339 | 34199 ft | 440 kts | 279° |
| 2026-04-26 00:10 | -25.90660 | 144.40672 | 34199 ft | 440 kts | 279° |
| 2026-04-26 00:10 | -25.89583 | 144.34004 | 34202 ft | 440 kts | 279° |
| 2026-04-26 00:11 | -25.88488 | 144.27309 | 34201 ft | 439 kts | 279° |
| 2026-04-26 00:11 | -25.87399 | 144.20651 | 34199 ft | 439 kts | 279° |
| 2026-04-26 00:12 | -25.86311 | 144.14020 | 34196 ft | 440 kts | 279° |
| 2026-04-26 00:12 | -25.85209 | 144.07314 | 34194 ft | 440 kts | 279° |
| 2026-04-26 00:13 | -25.84115 | 144.00661 | 34195 ft | 441 kts | 279° |
| 2026-04-26 00:13 | -25.83011 | 143.93983 | 34197 ft | 440 kts | 279° |
| 2026-04-26 00:14 | -25.81906 | 143.87309 | 34194 ft | 441 kts | 279° |
| 2026-04-26 00:14 | -25.80801 | 143.80658 | 34199 ft | 441 kts | 279° |
| 2026-04-26 00:15 | -25.79688 | 143.73991 | 34195 ft | 441 kts | 279° |
| 2026-04-26 00:15 | -25.78572 | 143.67302 | 34194 ft | 441 kts | 279° |
| 2026-04-26 00:16 | -25.77451 | 143.60612 | 34190 ft | 442 kts | 279° |
| 2026-04-26 00:16 | -25.76330 | 143.53931 | 34194 ft | 442 kts | 279° |
| 2026-04-26 00:17 | -25.75203 | 143.47257 | 34193 ft | 444 kts | 279° |
| 2026-04-26 00:17 | -25.74071 | 143.40549 | 34191 ft | 444 kts | 278° |
| 2026-04-26 00:18 | -25.72931 | 143.33823 | 34199 ft | 445 kts | 279° |
| 2026-04-26 00:18 | -25.71781 | 143.27054 | 34195 ft | 446 kts | 279° |
| 2026-04-26 00:19 | -25.70629 | 143.20303 | 34186 ft | 446 kts | 279° |
| 2026-04-26 00:19 | -25.69481 | 143.13588 | 34193 ft | 447 kts | 278° |
| 2026-04-26 00:20 | -25.68326 | 143.06839 | 34189 ft | 447 kts | 279° |
| 2026-04-26 00:20 | -25.67162 | 143.00075 | 34186 ft | 447 kts | 278° |
| 2026-04-26 00:21 | -25.66006 | 142.93364 | 34185 ft | 447 kts | 279° |
| 2026-04-26 00:21 | -25.64839 | 142.86624 | 34188 ft | 447 kts | 279° |
| 2026-04-26 00:22 | -25.63860 | 142.80981 | 34186 ft | 446 kts | 278° |
| 2026-04-26 00:22 | -25.62493 | 142.73117 | 34183 ft | 446 kts | 278° |
| 2026-04-26 00:23 | -25.61320 | 142.66388 | 34182 ft | 447 kts | 278° |
| 2026-04-26 00:23 | -25.60142 | 142.59656 | 34180 ft | 447 kts | 278° |
| 2026-04-26 00:24 | -25.58969 | 142.52969 | 34178 ft | 446 kts | 278° |
| 2026-04-26 00:24 | -25.57788 | 142.46240 | 34169 ft | 446 kts | 278° |
| 2026-04-26 00:25 | -25.56596 | 142.39488 | 34173 ft | 446 kts | 278° |
| 2026-04-26 00:25 | -25.55404 | 142.32759 | 34175 ft | 447 kts | 278° |
| 2026-04-26 00:26 | -25.54210 | 142.26022 | 34174 ft | 447 kts | 278° |
| 2026-04-26 00:26 | -25.53010 | 142.19278 | 34174 ft | 448 kts | 278° |
| 2026-04-26 00:27 | -25.51811 | 142.12547 | 34172 ft | 447 kts | 278° |
| 2026-04-26 00:27 | -25.50609 | 142.05829 | 34168 ft | 448 kts | 278° |
| 2026-04-26 00:28 | -25.49397 | 141.99065 | 34162 ft | 448 kts | 278° |
| 2026-04-26 00:28 | -25.48185 | 141.92323 | 34163 ft | 448 kts | 278° |
| 2026-04-26 00:29 | -25.46970 | 141.85585 | 34162 ft | 448 kts | 278° |
| 2026-04-26 00:29 | -25.45748 | 141.78827 | 34162 ft | 448 kts | 278° |
| 2026-04-26 00:30 | -25.44523 | 141.72066 | 34159 ft | 449 kts | 278° |
| 2026-04-26 00:30 | -25.43294 | 141.65311 | 34161 ft | 450 kts | 278° |
| 2026-04-26 00:31 | -25.42057 | 141.58519 | 34160 ft | 450 kts | 278° |
| 2026-04-26 00:31 | -25.40824 | 141.51772 | 34159 ft | 451 kts | 278° |
| 2026-04-26 00:32 | -25.39582 | 141.44989 | 34156 ft | 452 kts | 278° |
| 2026-04-26 00:32 | -25.37709 | 141.34796 | 34151 ft | 451 kts | 278° |
| 2026-04-26 00:33 | -25.36460 | 141.28015 | 34151 ft | 452 kts | 278° |
| 2026-04-26 00:33 | -25.35205 | 141.21211 | 34149 ft | 453 kts | 278° |
| 2026-04-26 00:34 | -25.33934 | 141.14359 | 34146 ft | 454 kts | 278° |
| 2026-04-26 00:34 | -25.32664 | 141.07571 | 34151 ft | 455 kts | 278° |
| 2026-04-26 00:35 | -25.31385 | 141.00745 | 34145 ft | 456 kts | 278° |
| 2026-04-26 00:35 | -25.30100 | 140.93892 | 34144 ft | 456 kts | 278° |
| 2026-04-26 00:36 | -25.28810 | 140.87019 | 34147 ft | 456 kts | 278° |
| 2026-04-26 00:36 | -25.27521 | 140.80179 | 34147 ft | 457 kts | 278° |